Time;durP1;ratioP1;P1;durP2;ratioP2;P2;SDS_P1;SDS_P2;PMS_P1;PMS_P2;Temp;Humidity;BMP_temperature;BMP_pressure;BME280_temperature;BME280_humidity;BME280_pressure;Samples;Min_cycle;Max_cycle;Signal;HPM_P1;HPM_P2
2021/05/07 00:01:00;;;;;;;8.43;4.30;;;10.50;77.40;;;;;;5040003;28;20025;-79
2021/05/07 00:03:26;;;;;;;7.53;4.20;;;10.50;77.70;;;;;;5039705;28;20054;-79
2021/05/07 00:05:54;;;;;;;9.15;3.88;;;10.40;77.40;;;;;;5040480;28;20037;-79
2021/05/07 00:08:34;;;;;;;7.85;4.20;;;10.40;77.40;;;;;;5039093;28;20099;-79
2021/05/07 00:11:02;;;;;;;6.28;4.50;;;10.40;77.50;;;;;;5054620;28;20033;-79
2021/05/07 00:13:28;;;;;;;8.57;4.50;;;10.40;77.50;;;;;;5039570;28;20033;-79
2021/05/07 00:15:55;;;;;;;10.35;4.85;;;10.30;77.40;;;;;;5039899;28;20054;-79
2021/05/07 00:18:20;;;;;;;7.60;4.22;;;10.30;77.30;;;;;;5058003;28;20028;-79
2021/05/07 00:20:46;;;;;;;8.07;4.15;;;10.30;77.20;;;;;;5038544;28;20111;-78
2021/05/07 00:23:12;;;;;;;5.35;3.42;;;10.30;77.30;;;;;;5058251;28;20028;-79
2021/05/07 00:25:38;;;;;;;6.32;3.80;;;10.30;77.70;;;;;;5056968;28;20024;-79
2021/05/07 00:28:07;;;;;;;5.47;3.60;;;10.30;78.00;;;;;;5067563;28;20029;-79
2021/05/07 00:30:33;;;;;;;6.05;4.38;;;10.20;77.70;;;;;;5038976;28;20442;-79
2021/05/07 00:32:59;;;;;;;9.18;4.40;;;10.20;77.60;;;;;;5039795;28;20024;-79
2021/05/07 00:35:26;;;;;;;8.75;4.18;;;10.20;77.60;;;;;;5056999;28;20039;-79
2021/05/07 00:37:52;;;;;;;7.15;4.60;;;10.10;77.40;;;;;;5056931;28;20021;-79
2021/05/07 00:40:18;;;;;;;6.70;3.70;;;10.10;77.20;;;;;;5040220;28;20333;-79
2021/05/07 00:42:43;;;;;;;7.50;4.35;;;10.10;77.20;;;;;;5057137;28;20112;-79
2021/05/07 00:45:12;;;;;;;6.57;4.38;;;10.10;77.30;;;;;;5039201;28;20951;-79
2021/05/07 00:47:57;;;;;;;6.38;3.80;;;10.00;78.30;;;;;;5038676;28;20051;-79
2021/05/07 00:50:26;;;;;;;6.07;3.95;;;10.00;78.30;;;;;;5056267;28;20029;-79
2021/05/07 00:52:54;;;;;;;5.07;3.47;;;9.90;78.10;;;;;;5020528;28;20025;-78
2021/05/07 00:55:22;;;;;;;5.07;3.42;;;9.90;78.10;;;;;;5035251;28;20112;-79
2021/05/07 00:57:48;;;;;;;6.07;4.47;;;9.90;78.10;;;;;;5035947;28;20032;-79
2021/05/07 01:00:15;;;;;;;5.55;4.00;;;9.80;77.90;;;;;;5053379;28;20450;-78
2021/05/07 01:02:40;;;;;;;5.53;3.85;;;9.70;77.90;;;;;;5039663;28;20021;-79
2021/05/07 01:05:08;;;;;;;7.25;4.30;;;9.60;77.90;;;;;;5055869;28;20083;-79
2021/05/07 01:07:34;;;;;;;7.82;4.72;;;9.70;77.80;;;;;;5039842;28;20029;-79
2021/05/07 01:10:00;;;;;;;9.60;4.80;;;9.70;78.50;;;;;;5037913;28;20393;-79
2021/05/07 01:12:28;;;;;;;7.10;4.20;;;9.70;78.40;;;;;;5055760;28;20024;-78
2021/05/07 01:15:09;;;;;;;7.38;4.28;;;9.60;78.00;;;;;;5037343;28;20086;-79
2021/05/07 01:17:40;;;;;;;6.80;4.25;;;9.60;78.00;;;;;;5036166;28;20488;-79
2021/05/07 01:20:13;;;;;;;6.70;4.40;;;9.60;77.80;;;;;;5037126;28;20044;-79
2021/05/07 01:22:41;;;;;;;7.57;4.50;;;9.60;77.80;;;;;;5051768;28;20033;-79
2021/05/07 01:25:08;;;;;;;7.28;4.13;;;9.60;77.50;;;;;;5056626;28;20040;-79
2021/05/07 01:27:39;;;;;;;5.78;4.30;;;9.60;77.20;;;;;;5025962;28;20504;-78
2021/05/07 01:30:14;;;;;;;7.15;4.55;;;9.60;78.10;;;;;;5035656;28;20038;-79
2021/05/07 01:32:40;;;;;;;7.28;4.70;;;9.50;78.30;;;;;;5035882;28;20117;-79
2021/05/07 01:35:12;;;;;;;6.63;4.25;;;9.50;78.60;;;;;;5018269;28;20057;-79
2021/05/07 01:37:38;;;;;;;7.43;4.60;;;9.50;78.80;;;;;;5036995;28;20026;-79
2021/05/07 01:40:11;;;;;;;6.75;4.32;;;9.50;78.70;;;;;;5017826;28;20083;-79
2021/05/07 01:42:36;;;;;;;7.10;4.85;;;9.50;78.30;;;;;;5041000;28;20136;-79
2021/05/07 01:45:05;;;;;;;6.78;4.55;;;9.40;77.90;;;;;;5037736;28;20033;-79
2021/05/07 01:47:30;;;;;;;6.25;4.18;;;9.40;77.80;;;;;;5038635;28;20029;-79
2021/05/07 01:49:56;;;;;;;7.53;4.90;;;9.40;77.90;;;;;;5052727;28;20129;-79
2021/05/07 01:52:25;;;;;;;7.63;4.35;;;9.40;78.00;;;;;;5054523;28;20027;-80
2021/05/07 01:54:51;;;;;;;6.13;4.30;;;9.40;78.40;;;;;;5019038;28;20029;-79
2021/05/07 01:57:17;;;;;;;6.10;4.10;;;9.30;78.10;;;;;;5035546;28;20082;-79
2021/05/07 01:59:42;;;;;;;6.97;4.30;;;9.30;78.10;;;;;;5036593;28;20136;-79
2021/05/07 02:02:08;;;;;;;6.13;4.32;;;9.30;78.20;;;;;;5048141;28;20047;-79
2021/05/07 02:04:34;;;;;;;6.65;4.45;;;9.20;78.30;;;;;;5056250;28;20086;-79
2021/05/07 02:07:00;;;;;;;7.35;4.53;;;9.20;78.00;;;;;;5055459;28;20025;-79
2021/05/07 02:09:26;;;;;;;7.80;4.53;;;9.10;78.10;;;;;;5036669;28;20133;-78
2021/05/07 02:11:51;;;;;;;6.85;4.30;;;9.10;77.80;;;;;;5056251;28;20053;-79
2021/05/07 02:14:17;;;;;;;7.68;4.10;;;9.10;78.20;;;;;;5054779;28;20448;-79
2021/05/07 02:16:42;;;;;;;6.30;3.83;;;9.10;78.10;;;;;;5054971;28;20056;-79
2021/05/07 02:19:09;;;;;;;10.20;4.40;;;9.10;78.10;;;;;;5054940;28;20060;-79
2021/05/07 02:21:35;;;;;;;7.70;4.40;;;9.00;78.60;;;;;;5056167;28;20083;-79
2021/05/07 02:24:00;;;;;;;6.82;4.65;;;9.00;78.40;;;;;;5036765;28;20048;-79
2021/05/07 02:26:28;;;;;;;7.45;4.68;;;8.90;78.90;;;;;;5054987;28;20040;-79
2021/05/07 02:28:54;;;;;;;9.65;4.68;;;9.00;78.30;;;;;;5061626;28;20387;-79
2021/05/07 02:31:20;;;;;;;6.28;3.97;;;8.90;78.60;;;;;;5055220;28;20029;-79
2021/05/07 02:33:46;;;;;;;7.00;4.20;;;9.00;78.40;;;;;;5054987;28;20033;-79
2021/05/07 02:36:11;;;;;;;8.35;4.65;;;8.90;78.40;;;;;;5033273;28;20053;-79
2021/05/07 02:38:40;;;;;;;6.40;4.25;;;8.90;78.70;;;;;;5036246;28;20057;-79
2021/05/07 02:41:05;;;;;;;10.27;4.65;;;8.90;78.50;;;;;;5050881;28;20048;-79
2021/05/07 02:43:31;;;;;;;7.97;4.50;;;8.90;78.40;;;;;;5037056;28;20029;-79
2021/05/07 02:45:57;;;;;;;5.07;3.78;;;8.80;78.00;;;;;;5038037;28;20384;-79
2021/05/07 02:48:22;;;;;;;5.00;3.88;;;8.70;78.00;;;;;;5036514;28;20440;-79
2021/05/07 02:50:48;;;;;;;7.68;4.57;;;8.70;78.00;;;;;;5050982;28;20033;-79
2021/05/07 02:53:14;;;;;;;7.05;4.15;;;8.70;77.30;;;;;;5035080;28;20057;-79
2021/05/07 02:55:39;;;;;;;9.55;4.00;;;8.50;77.50;;;;;;5039854;28;20029;-79
2021/05/07 02:58:05;;;;;;;5.40;4.07;;;8.50;77.20;;;;;;5054750;28;20039;-79
2021/05/07 03:00:31;;;;;;;6.60;4.38;;;8.50;78.10;;;;;;5054834;28;20033;-79
2021/05/07 03:02:56;;;;;;;7.15;5.18;;;8.50;78.00;;;;;;5037268;28;20074;-79
2021/05/07 03:05:22;;;;;;;10.88;4.53;;;8.50;78.00;;;;;;5037165;28;20438;-79
2021/05/07 03:07:48;;;;;;;8.18;4.45;;;8.40;77.90;;;;;;5055253;28;20369;-79
2021/05/07 03:10:13;;;;;;;6.03;3.90;;;8.40;77.80;;;;;;5036498;28;20568;-79
2021/05/07 03:12:39;;;;;;;6.63;3.90;;;8.50;77.70;;;;;;5037631;28;20473;-78
2021/05/07 03:15:06;;;;;;;7.68;4.35;;;8.50;77.30;;;;;;5054085;28;20112;-79
2021/05/07 03:17:32;;;;;;;7.30;4.15;;;8.50;77.80;;;;;;5057279;28;20017;-79
2021/05/07 03:19:58;;;;;;;7.68;4.50;;;8.50;77.90;;;;;;5058809;28;20048;-79
2021/05/07 03:22:23;;;;;;;7.78;4.85;;;8.60;77.10;;;;;;5057194;28;20107;-79
2021/05/07 03:24:49;;;;;;;8.32;4.45;;;8.60;78.10;;;;;;5040725;28;20033;-79
2021/05/07 03:27:15;;;;;;;8.65;4.82;;;8.50;78.20;;;;;;5057989;28;20047;-79
2021/05/07 03:29:40;;;;;;;5.90;4.15;;;8.40;78.50;;;;;;5057776;28;20585;-79
2021/05/07 03:32:06;;;;;;;6.28;4.28;;;8.30;78.80;;;;;;5057593;28;20049;-80
2021/05/07 03:34:32;;;;;;;6.93;4.65;;;8.30;78.50;;;;;;5056746;28;20025;-79
2021/05/07 03:36:58;;;;;;;8.43;5.50;;;8.30;77.90;;;;;;5059067;28;20075;-79
2021/05/07 03:39:23;;;;;;;10.07;5.63;;;8.30;77.90;;;;;;5057280;28;20025;-79
2021/05/07 03:41:49;;;;;;;11.88;6.10;;;8.20;78.60;;;;;;5057583;28;20034;-79
2021/05/07 03:44:15;;;;;;;9.68;7.47;;;8.20;78.30;;;;;;5057750;28;20063;-79
2021/05/07 03:46:40;;;;;;;12.20;6.63;;;8.30;78.30;;;;;;5058509;28;20072;-79
2021/05/07 03:49:06;;;;;;;11.02;5.78;;;8.30;78.50;;;;;;5024822;28;20041;-80
2021/05/07 03:51:32;;;;;;;9.68;5.63;;;8.20;78.10;;;;;;5020119;28;20025;-79
2021/05/07 03:53:58;;;;;;;8.98;5.25;;;8.20;78.50;;;;;;5020504;28;20029;-79
2021/05/07 03:56:23;;;;;;;7.65;5.07;;;8.20;78.30;;;;;;5052473;28;20093;-79
2021/05/07 03:58:49;;;;;;;8.43;4.95;;;8.10;79.00;;;;;;5058340;28;20044;-79
2021/05/07 04:01:14;;;;;;;9.60;5.85;;;8.20;78.00;;;;;;5056962;28;20040;-79
2021/05/07 04:03:40;;;;;;;8.02;4.65;;;8.20;78.70;;;;;;5058270;28;20033;-78
2021/05/07 04:06:08;;;;;;;7.13;4.65;;;8.20;78.60;;;;;;5058135;28;20025;-79
2021/05/07 04:08:38;;;;;;;7.80;5.30;;;8.10;79.50;;;;;;5035456;28;20144;-79
2021/05/07 04:11:09;;;;;;;8.43;5.38;;;8.10;79.20;;;;;;5020412;28;20609;-79
2021/05/07 04:13:39;;;;;;;10.18;5.85;;;8.10;78.80;;;;;;5047774;28;20108;-79
2021/05/07 04:16:09;;;;;;;9.73;5.70;;;8.00;78.70;;;;;;5058528;28;20033;-79
2021/05/07 04:18:35;;;;;;;8.25;5.00;;;8.00;78.30;;;;;;5039498;28;20051;-79
2021/05/07 04:21:01;;;;;;;8.93;5.63;;;8.00;78.20;;;;;;5058072;28;20033;-79
2021/05/07 04:23:27;;;;;;;10.65;6.22;;;8.00;78.50;;;;;;5038720;28;20060;-79
2021/05/07 04:25:53;;;;;;;7.70;4.65;;;8.00;78.60;;;;;;5047738;28;20021;-79
2021/05/07 04:28:20;;;;;;;12.82;5.72;;;8.00;78.10;;;;;;5057867;28;20029;-79
2021/05/07 04:30:46;;;;;;;9.18;5.57;;;7.90;78.70;;;;;;5056951;28;20017;-79
2021/05/07 04:33:12;;;;;;;10.35;6.90;;;8.00;78.50;;;;;;5057498;28;20021;-79
2021/05/07 04:35:38;;;;;;;8.93;5.85;;;7.90;78.10;;;;;;5039204;28;20116;-79
2021/05/07 04:38:04;;;;;;;9.98;5.80;;;7.90;78.20;;;;;;5057948;28;20127;-78
2021/05/07 04:40:31;;;;;;;7.53;5.55;;;7.80;78.00;;;;;;5056096;28;20021;-79
2021/05/07 04:42:59;;;;;;;9.35;6.65;;;7.90;78.40;;;;;;5038410;28;21064;-79
2021/05/07 04:45:25;;;;;;;9.85;5.10;;;7.90;77.80;;;;;;5056648;28;20079;-79
2021/05/07 04:47:51;;;;;;;7.18;4.57;;;7.90;78.20;;;;;;5056155;28;20029;-79
2021/05/07 04:50:16;;;;;;;7.78;5.03;;;7.90;78.10;;;;;;5056786;28;20036;-79
2021/05/07 04:52:42;;;;;;;10.23;6.13;;;7.80;78.20;;;;;;5038902;28;20029;-80
2021/05/07 04:55:08;;;;;;;7.97;5.18;;;7.80;78.50;;;;;;5056385;28;20017;-78
2021/05/07 04:57:34;;;;;;;7.80;5.00;;;7.80;78.40;;;;;;5030554;28;20057;-79
2021/05/07 05:00:00;;;;;;;9.15;6.00;;;7.80;78.60;;;;;;5036991;28;20590;-79
2021/05/07 05:02:26;;;;;;;8.07;4.90;;;7.90;78.70;;;;;;5039926;28;20537;-78
2021/05/07 05:04:52;;;;;;;8.35;5.20;;;7.90;78.50;;;;;;5059350;28;20381;-78
2021/05/07 05:07:18;;;;;;;7.47;4.47;;;7.90;78.70;;;;;;5045276;28;20029;-78
2021/05/07 05:09:44;;;;;;;7.95;5.28;;;7.90;77.90;;;;;;5056206;28;20098;-75
2021/05/07 05:12:10;;;;;;;8.43;5.25;;;7.90;80.20;;;;;;5014070;28;20486;-77
2021/05/07 05:14:35;;;;;;;7.85;4.65;;;7.80;80.20;;;;;;5038159;28;20032;-77
2021/05/07 05:17:01;;;;;;;9.05;5.53;;;7.90;79.70;;;;;;5038347;28;20098;-76
2021/05/07 05:19:27;;;;;;;9.88;5.30;;;8.00;78.30;;;;;;5037139;28;20090;-77
2021/05/07 05:21:53;;;;;;;8.48;5.45;;;8.00;78.80;;;;;;5054401;28;20032;-77
2021/05/07 05:24:18;;;;;;;9.57;5.68;;;7.90;79.10;;;;;;5047857;28;20029;-77
2021/05/07 05:26:44;;;;;;;7.43;5.47;;;7.90;79.40;;;;;;5049179;28;20495;-75
2021/05/07 05:29:12;;;;;;;10.60;5.95;;;7.90;79.80;;;;;;5054517;28;20080;-76
2021/05/07 05:31:38;;;;;;;7.03;5.03;;;7.90;79.60;;;;;;5035025;28;20096;-76
2021/05/07 05:34:04;;;;;;;7.78;4.93;;;7.90;79.50;;;;;;5036185;28;20033;-77
2021/05/07 05:36:30;;;;;;;9.23;5.30;;;7.90;79.40;;;;;;5041669;28;20059;-76
2021/05/07 05:38:56;;;;;;;7.85;5.07;;;8.00;79.40;;;;;;5047390;28;20090;-78
2021/05/07 05:41:21;;;;;;;8.98;5.10;;;8.00;79.10;;;;;;5044048;28;20025;-78
2021/05/07 05:43:48;;;;;;;10.90;6.22;;;8.10;78.40;;;;;;5045177;28;20064;-77
2021/05/07 05:46:14;;;;;;;8.23;5.20;;;8.10;79.20;;;;;;5043061;28;20029;-77
2021/05/07 05:48:40;;;;;;;7.13;4.95;;;8.00;79.50;;;;;;5036505;28;20593;-76
2021/05/07 05:51:06;;;;;;;7.72;5.32;;;8.10;79.80;;;;;;5035640;28;20037;-79
2021/05/07 05:53:32;;;;;;;7.80;5.20;;;8.10;80.30;;;;;;5021702;28;20057;-80
2021/05/07 05:55:58;;;;;;;8.70;5.47;;;8.20;79.90;;;;;;5052189;28;20076;-77
2021/05/07 05:58:23;;;;;;;10.20;5.03;;;8.20;79.70;;;;;;5034939;28;20029;-79
2021/05/07 06:00:49;;;;;;;8.25;5.28;;;8.30;80.00;;;;;;5047848;28;20057;-78
2021/05/07 06:03:14;;;;;;;11.25;5.80;;;8.30;80.40;;;;;;5041647;28;20018;-78
2021/05/07 06:05:40;;;;;;;6.97;4.78;;;8.40;81.30;;;;;;5041596;28;20033;-78
2021/05/07 06:08:06;;;;;;;9.73;4.63;;;8.50;81.20;;;;;;5042194;28;20558;-77
2021/05/07 06:10:31;;;;;;;8.00;5.15;;;8.60;80.80;;;;;;5040758;28;20415;-78
2021/05/07 06:12:57;;;;;;;6.80;4.75;;;8.70;80.70;;;;;;5034496;28;20021;-78
2021/05/07 06:15:23;;;;;;;9.25;4.93;;;8.90;80.50;;;;;;5053503;28;20029;-78
2021/05/07 06:17:49;;;;;;;9.38;4.82;;;9.00;80.40;;;;;;5037656;28;20091;-78
2021/05/07 06:20:16;;;;;;;8.05;5.05;;;9.00;79.90;;;;;;5053865;28;20070;-78
2021/05/07 06:22:43;;;;;;;8.23;4.90;;;9.10;78.70;;;;;;5053618;28;20021;-78
2021/05/07 06:25:13;;;;;;;9.40;4.75;;;9.10;79.70;;;;;;5046046;28;20113;-78
2021/05/07 06:27:40;;;;;;;7.18;4.50;;;9.10;79.80;;;;;;5043851;28;20021;-78
2021/05/07 06:30:08;;;;;;;7.43;4.68;;;9.20;78.90;;;;;;5053727;28;20033;-78
2021/05/07 06:32:34;;;;;;;5.57;4.32;;;9.20;80.70;;;;;;5021748;28;20857;-78
2021/05/07 06:34:59;;;;;;;7.10;4.47;;;9.20;78.80;;;;;;5015591;28;20531;-78
2021/05/07 06:37:25;;;;;;;7.07;4.28;;;9.30;79.30;;;;;;5033574;28;20024;-79
2021/05/07 06:39:52;;;;;;;9.60;4.85;;;9.30;78.30;;;;;;5033423;28;20037;-74
2021/05/07 06:42:21;;;;;;;7.30;4.20;;;9.40;80.10;;;;;;5028887;28;20391;-78
2021/05/07 06:44:46;;;;;;;6.05;3.55;;;9.40;79.70;;;;;;5035746;28;20475;-75
2021/05/07 06:47:12;;;;;;;6.47;3.90;;;9.40;79.00;;;;;;5033360;28;20269;-75
2021/05/07 06:49:38;;;;;;;7.10;4.72;;;9.40;79.00;;;;;;5041254;28;20095;-76
2021/05/07 06:52:04;;;;;;;7.38;4.07;;;9.60;78.90;;;;;;5045581;28;20036;-75
2021/05/07 06:54:30;;;;;;;5.97;3.92;;;9.60;80.10;;;;;;5046365;28;20092;-77
2021/05/07 06:56:57;;;;;;;6.72;4.40;;;9.60;78.40;;;;;;5046857;28;20098;-77
2021/05/07 06:59:27;;;;;;;9.40;4.38;;;9.80;79.10;;;;;;5044810;28;20071;-76
2021/05/07 07:01:53;;;;;;;6.32;4.18;;;10.20;76.90;;;;;;5044517;28;20057;-76
2021/05/07 07:04:19;;;;;;;5.05;3.45;;;10.70;76.60;;;;;;5024573;28;20514;-74
2021/05/07 07:06:45;;;;;;;7.40;4.25;;;10.70;75.80;;;;;;5041810;28;20021;-77
2021/05/07 07:09:12;;;;;;;7.18;4.72;;;11.10;75.90;;;;;;5046963;28;20470;-75
2021/05/07 07:11:38;;;;;;;4.90;4.07;;;11.90;74.20;;;;;;5053908;28;20025;-74
2021/05/07 07:14:04;;;;;;;5.40;3.58;;;14.20;68.50;;;;;;5047287;28;20022;-79
2021/05/07 07:16:30;;;;;;;7.70;4.10;;;16.40;60.50;;;;;;5048178;28;20009;-79
2021/05/07 07:18:56;;;;;;;7.95;3.42;;;;;;;;;;5046934;28;20036;-79
2021/05/07 07:21:22;;;;;;;6.10;3.60;;;18.10;55.50;;;;;;5045531;28;20093;-79
2021/05/07 07:23:47;;;;;;;4.90;3.45;;;20.80;47.20;;;;;;5028189;28;20527;-79
2021/05/07 07:26:13;;;;;;;5.55;3.58;;;;;;;;;;5048716;28;20036;-79
2021/05/07 07:28:41;;;;;;;5.40;3.40;;;;;;;;;;5045878;28;20029;-80
2021/05/07 07:31:07;;;;;;;7.40;3.08;;;;;;;;;;5045543;28;20049;-79
2021/05/07 07:33:33;;;;;;;6.35;3.45;;;;;;;;;;5030088;28;20558;-79
2021/05/07 07:35:59;;;;;;;4.65;3.63;;;;;;;;;;5032562;28;20025;-80
2021/05/07 07:38:26;;;;;;;6.72;3.17;;;;;;;;;;5027153;28;20032;-79
2021/05/07 07:40:52;;;;;;;5.57;3.40;;;;;;;;;;5030210;28;20037;-80
2021/05/07 07:43:20;;;;;;;4.57;3.22;;;;;;;;;;5047921;28;20036;-79
2021/05/07 07:45:46;;;;;;;5.35;3.67;;;;;;;;;;5045408;28;20033;-80
2021/05/07 07:48:12;;;;;;;4.45;3.60;;;;;;;;;;5046189;28;20030;-79
2021/05/07 07:50:39;;;;;;;5.80;3.35;;;;;;;;;;5031925;28;20388;-80
2021/05/07 07:53:05;;;;;;;5.28;3.35;;;;;;;;;;5045039;28;20109;-79
2021/05/07 07:55:31;;;;;;;5.20;3.10;;;;;;;;;;5025635;28;20724;-80
2021/05/07 07:57:57;;;;;;;6.97;3.42;;;21.40;45.80;;;;;;5046135;28;20013;-80
2021/05/07 08:00:23;;;;;;;5.32;3.28;;;25.70;37.70;;;;;;5027231;28;20033;-79
2021/05/07 08:02:48;;;;;;;4.60;3.35;;;26.10;36.80;;;;;;5048135;28;20021;-80
2021/05/07 08:05:14;;;;;;;10.68;3.90;;;26.40;38.20;;;;;;5027846;28;20044;-80
2021/05/07 08:07:41;;;;;;;5.97;3.00;;;26.20;36.20;;;;;;5045901;28;20532;-79
2021/05/07 08:10:08;;;;;;;6.53;3.42;;;26.50;37.00;;;;;;5026601;28;20053;-80
2021/05/07 08:12:34;;;;;;;6.70;3.65;;;26.60;36.30;;;;;;5038768;28;20037;-78
2021/05/07 08:15:00;;;;;;;4.90;3.28;;;26.30;35.80;;;;;;5034143;28;20032;-78
2021/05/07 08:17:26;;;;;;;7.72;3.40;;;26.50;35.70;;;;;;5051662;28;20076;-78
2021/05/07 08:19:52;;;;;;;7.53;3.22;;;26.80;36.00;;;;;;5045222;28;20107;-78
2021/05/07 08:22:17;;;;;;;4.70;3.30;;;26.40;36.20;;;;;;5045999;28;20104;-79
2021/05/07 08:24:44;;;;;;;4.68;3.25;;;26.20;36.70;;;;;;5043949;28;20144;-79
2021/05/07 08:27:10;;;;;;;4.85;3.63;;;26.40;35.30;;;;;;5015992;28;20598;-78
2021/05/07 08:29:35;;;;;;;6.28;3.67;;;26.50;36.80;;;;;;5036657;28;20041;-79
2021/05/07 08:32:01;;;;;;;4.75;3.45;;;26.10;35.60;;;;;;5047177;28;20021;-79
2021/05/07 08:34:27;;;;;;;4.07;2.97;;;26.50;36.70;;;;;;5041794;28;20060;-79
2021/05/07 08:36:53;;;;;;;3.90;3.08;;;26.80;34.30;;;;;;5054070;28;20028;-79
2021/05/07 08:39:19;;;;;;;4.47;2.80;;;26.70;35.30;;;;;;5023340;28;20029;-79
2021/05/07 08:41:47;;;;;;;5.85;2.55;;;27.10;34.50;;;;;;5034932;28;20048;-78
2021/05/07 08:44:13;;;;;;;3.85;2.22;;;27.40;33.70;;;;;;5047852;28;20025;-79
2021/05/07 08:46:41;;;;;;;5.10;2.78;;;27.50;33.80;;;;;;5024689;28;20039;-79
2021/05/07 08:49:07;;;;;;;7.00;1.92;;;;;;;;;;5055285;28;20868;-79
2021/05/07 08:51:33;;;;;;;4.68;2.42;;;;;;;;;;5019951;28;20025;-78
2021/05/07 08:54:00;;;;;;;3.38;2.10;;;;;;;;;;5017122;28;20462;-79
2021/05/07 08:56:26;;;;;;;3.15;1.70;;;;;;;;;;5022167;28;20143;-79
2021/05/07 08:58:52;;;;;;;7.20;2.35;;;;;;;;;;5037371;28;20079;-79
2021/05/07 09:01:18;;;;;;;3.35;2.20;;;;;;;;;;5034172;28;20026;-79
2021/05/07 09:03:47;;;;;;;3.50;1.80;;;;;;;;;;5042829;28;20053;-78
2021/05/07 09:06:17;;;;;;;4.30;2.22;;;;;;;;;;5024626;28;20034;-78
2021/05/07 09:08:43;;;;;;;3.40;1.73;;;;;;;;;;5045271;28;20037;-78
2021/05/07 09:11:08;;;;;;;5.35;2.28;;;27.50;33.70;;;;;;5053723;28;20036;-78
2021/05/07 09:13:34;;;;;;;3.17;1.90;;;26.40;31.70;;;;;;5038229;28;20026;-78
2021/05/07 09:16:05;;;;;;;4.80;1.95;;;26.30;33.20;;;;;;5051113;28;20041;-79
2021/05/07 09:18:40;;;;;;;4.40;2.05;;;26.50;32.80;;;;;;5018420;28;20104;-79
2021/05/07 09:21:07;;;;;;;3.75;1.70;;;;;;;;;;5034340;28;20030;-79
2021/05/07 09:23:38;;;;;;;3.13;1.55;;;;;;;;;;5024930;28;20075;-79
2021/05/07 09:26:04;;;;;;;4.90;1.95;;;;;;;;;;5019530;28;20029;-79
2021/05/07 09:28:30;;;;;;;4.60;1.80;;;;;;;;;;5017315;28;20048;-79
2021/05/07 09:31:10;;;;;;;3.53;1.75;;;;;;;;;;5022695;28;20031;-78
2021/05/07 09:33:40;;;;;;;3.50;1.55;;;;;;;;;;5054449;28;20017;-79
2021/05/07 09:36:06;;;;;;;2.92;1.52;;;26.50;31.50;;;;;;5054323;28;20075;-78
2021/05/07 09:38:33;;;;;;;3.08;1.70;;;;;;;;;;5046980;28;20021;-78
2021/05/07 09:40:59;;;;;;;5.03;1.95;;;;;;;;;;5044348;28;20028;-78
2021/05/07 09:43:29;;;;;;;3.28;1.98;;;;;;;;;;5021534;28;20040;-78
2021/05/07 09:45:55;;;;;;;3.95;1.80;;;;;;;;;;5030874;28;20036;-78
2021/05/07 09:48:23;;;;;;;2.67;1.80;;;;;;;;;;5053715;28;20513;-78
2021/05/07 09:50:50;;;;;;;2.47;1.65;;;;;;;;;;5034289;28;20373;-79
2021/05/07 09:53:18;;;;;;;3.40;1.88;;;;;;;;;;5036352;28;20037;-78
2021/05/07 09:55:45;;;;;;;3.88;2.22;;;26.70;30.20;;;;;;5040100;28;20024;-78
2021/05/07 09:58:11;;;;;;;3.50;1.90;;;;;;;;;;5053704;28;20037;-78
2021/05/07 10:00:37;;;;;;;4.45;2.20;;;;;;;;;;5053405;28;20040;-78
2021/05/07 10:03:03;;;;;;;3.38;2.10;;;;;;;;;;5045934;28;20029;-78
2021/05/07 10:05:29;;;;;;;5.55;2.35;;;;;;;;;;5026017;28;20029;-78
2021/05/07 10:07:58;;;;;;;3.88;2.40;;;24.30;33.50;;;;;;5032430;28;20030;-79
2021/05/07 10:10:29;;;;;;;3.90;1.98;;;24.00;34.30;;;;;;5037962;28;20090;-80
2021/05/07 10:12:59;;;;;;;3.70;2.05;;;23.30;34.70;;;;;;5044028;28;20034;-79
2021/05/07 10:15:30;;;;;;;5.20;2.47;;;22.20;35.60;;;;;;5045015;28;20066;-81
2021/05/07 10:17:56;;;;;;;5.25;2.58;;;22.30;36.20;;;;;;5054466;28;20032;-80
2021/05/07 10:20:33;;;;;;;2.45;1.80;;;22.40;36.10;;;;;;5052843;28;20029;-84
2021/05/07 10:23:00;;;;;;;3.20;2.00;;;;;;;;;;5036505;28;20025;-89
2021/05/07 10:25:27;;;;;;;5.72;1.88;;;22.90;35.30;;;;;;5032979;28;20057;-81
2021/05/07 10:27:56;;;;;;;4.03;2.13;;;22.60;35.40;;;;;;5056299;28;20033;-85
2021/05/07 10:30:25;;;;;;;3.67;2.07;;;21.80;36.20;;;;;;5060450;28;20079;-83
2021/05/07 10:33:02;;;;;;;3.50;2.13;;;21.70;37.00;;;;;;5037723;28;20283;-80
2021/05/07 10:35:32;;;;;;;2.75;1.85;;;21.30;38.20;;;;;;5033673;28;20041;-82
2021/05/07 10:38:08;;;;;;;3.65;2.15;;;21.40;37.50;;;;;;5046854;28;20033;-83
2021/05/07 10:40:34;;;;;;;3.45;2.03;;;21.10;37.30;;;;;;5057088;28;20370;-85
2021/05/07 10:42:59;;;;;;;3.30;2.00;;;21.00;36.50;;;;;;5056324;28;20131;-84
2021/05/07 10:45:47;;;;;;;4.10;2.03;;;21.00;37.80;;;;;;5054197;28;20459;-83
2021/05/07 10:48:12;;;;;;;2.80;1.65;;;20.70;36.10;;;;;;5055600;28;20099;-86
2021/05/07 10:50:42;;;;;;;4.78;2.25;;;20.20;37.20;;;;;;5054259;28;20041;-80
2021/05/07 10:53:08;;;;;;;4.35;1.90;;;20.00;38.70;;;;;;5033931;28;20112;-82
2021/05/07 10:55:34;;;;;;;2.28;1.20;;;19.90;38.50;;;;;;5055387;28;20047;-82
2021/05/07 10:58:01;;;;;;;2.88;2.30;;;20.10;38.00;;;;;;5055225;28;20051;-85
2021/05/07 11:00:39;;;;;;;3.85;1.77;;;20.10;37.60;;;;;;5055592;28;20042;-82
2021/05/07 11:03:16;;;;;;;5.50;2.20;;;20.30;39.70;;;;;;5038431;28;20037;-85
2021/05/07 11:05:48;;;;;;;2.88;1.70;;;20.20;39.80;;;;;;5043672;28;20028;-78
2021/05/07 11:08:14;;;;;;;9.02;2.20;;;19.80;38.50;;;;;;5051333;28;20096;-81
2021/05/07 11:10:41;;;;;;;5.70;2.30;;;19.40;39.50;;;;;;5046829;28;20102;-86
2021/05/07 11:13:07;;;;;;;5.47;2.10;;;19.10;40.20;;;;;;5055790;28;20032;-80
2021/05/07 11:15:34;;;;;;;4.47;2.30;;;19.10;41.00;;;;;;5040316;28;20029;-79
2021/05/07 11:18:08;;;;;;;4.18;1.75;;;19.10;41.60;;;;;;5051805;28;20096;-81
2021/05/07 11:20:36;;;;;;;3.50;1.73;;;19.00;39.30;;;;;;5036775;28;20128;-79
2021/05/07 11:23:04;;;;;;;4.63;1.95;;;18.90;39.10;;;;;;5045323;28;20021;-79
2021/05/07 11:25:31;;;;;;;6.45;2.80;;;18.60;41.40;;;;;;5031910;28;20564;-77
2021/05/07 11:28:10;;;;;;;4.18;2.33;;;18.80;42.20;;;;;;5044492;28;20031;-78
2021/05/07 11:30:45;;;;;;;4.22;1.90;;;19.00;40.00;;;;;;5034112;28;20122;-78
2021/05/07 11:33:11;;;;;;;3.10;1.42;;;19.20;37.60;;;;;;5041881;28;20036;-78
2021/05/07 11:35:36;;;;;;;3.15;1.50;;;19.30;39.60;;;;;;5046001;28;20029;-78
2021/05/07 11:38:02;;;;;;;5.20;1.85;;;19.30;38.60;;;;;;5053529;28;20048;-78
2021/05/07 11:40:34;;;;;;;2.53;1.65;;;19.40;42.30;;;;;;5025535;28;20029;-78
2021/05/07 11:43:12;;;;;;;4.65;2.00;;;19.50;39.90;;;;;;5045648;28;20025;-77
2021/05/07 11:45:39;;;;;;;3.92;1.70;;;19.30;38.00;;;;;;5030715;28;20432;-75
2021/05/07 11:48:10;;;;;;;4.60;1.92;;;19.30;41.00;;;;;;5045205;28;20060;-79
2021/05/07 11:50:36;;;;;;;2.72;1.65;;;19.40;40.50;;;;;;5026797;28;20056;-80
2021/05/07 11:53:02;;;;;;;4.88;1.88;;;19.30;40.60;;;;;;5027383;28;20030;-80
2021/05/07 11:55:31;;;;;;;5.70;2.00;;;19.00;38.40;;;;;;5038716;28;20029;-84
2021/05/07 11:58:02;;;;;;;5.18;2.00;;;18.60;40.70;;;;;;5043577;28;20078;-80
2021/05/07 12:00:30;;;;;;;3.67;1.92;;;18.40;40.60;;;;;;5042792;28;20100;-80
2021/05/07 12:03:06;;;;;;;4.07;1.90;;;18.40;40.10;;;;;;5039329;28;20087;-79
2021/05/07 12:05:38;;;;;;;4.22;1.95;;;18.60;42.90;;;;;;5043729;28;20025;-80
2021/05/07 12:08:05;;;;;;;2.70;1.88;;;19.00;40.30;;;;;;5036390;28;20560;-80
2021/05/07 12:10:32;;;;;;;3.53;1.75;;;19.00;39.50;;;;;;5030146;28;20120;-81
2021/05/07 12:12:59;;;;;;;3.88;2.13;;;19.10;38.70;;;;;;5038984;28;20035;-80
2021/05/07 12:15:42;;;;;;;3.15;1.83;;;19.20;40.80;;;;;;5018258;28;20149;-80
2021/05/07 12:18:22;;;;;;;5.65;2.60;;;19.20;40.20;;;;;;5035319;28;20029;-80
2021/05/07 12:20:49;;;;;;;3.83;1.90;;;19.10;41.40;;;;;;5027201;28;20029;-80
2021/05/07 12:23:15;;;;;;;4.25;2.13;;;19.00;40.30;;;;;;5036726;28;20098;-80
2021/05/07 12:25:46;;;;;;;2.92;1.88;;;18.90;39.60;;;;;;5021003;28;20025;-80
2021/05/07 12:28:20;;;;;;;3.40;1.80;;;19.10;41.10;;;;;;5024715;28;20040;-81
2021/05/07 12:30:47;;;;;;;3.10;1.67;;;19.10;39.50;;;;;;5026319;28;20025;-80
2021/05/07 12:33:19;;;;;;;3.80;2.45;;;19.00;39.10;;;;;;5027273;28;20105;-80
2021/05/07 12:35:46;;;;;;;3.15;1.67;;;18.70;38.80;;;;;;5039922;28;20060;-80
2021/05/07 12:38:17;;;;;;;4.03;1.95;;;18.70;40.60;;;;;;5042416;28;20037;-80
2021/05/07 12:40:43;;;;;;;4.63;1.67;;;18.90;42.30;;;;;;5024140;28;20025;-80
2021/05/07 12:43:09;;;;;;;3.42;1.77;;;18.90;39.50;;;;;;5035688;28;20044;-79
2021/05/07 12:45:34;;;;;;;3.80;2.10;;;19.10;39.10;;;;;;5038532;28;20096;-81
2021/05/07 12:48:00;;;;;;;3.78;1.92;;;19.10;39.40;;;;;;5040576;28;20018;-80
2021/05/07 12:50:27;;;;;;;2.50;1.65;;;19.10;39.70;;;;;;5017196;28;20500;-80
2021/05/07 12:52:53;;;;;;;2.72;1.60;;;18.90;39.10;;;;;;5040329;28;20053;-80
2021/05/07 12:55:18;;;;;;;2.88;1.65;;;18.80;41.50;;;;;;5031734;28;20150;-80
2021/05/07 12:57:45;;;;;;;4.05;1.50;;;18.80;38.80;;;;;;5015725;28;20029;-80
2021/05/07 13:00:11;;;;;;;2.35;1.52;;;18.90;38.30;;;;;;5048295;28;20021;-81
2021/05/07 13:02:36;;;;;;;4.22;1.67;;;18.80;40.30;;;;;;5031180;28;20057;-79
2021/05/07 13:05:03;;;;;;;2.22;1.40;;;18.90;40.00;;;;;;5042002;28;20440;-80